Time;durP1;ratioP1;P1;durP2;ratioP2;P2;SDS_P1;SDS_P2;PMS_P1;PMS_P2;Temp;Humidity;BMP_temperature;BMP_pressure;BME280_temperature;BME280_humidity;BME280_pressure;Samples;Min_cycle;Max_cycle;Signal;HPM_P1;HPM_P2
2023/01/19 00:01:41;;;;;;;1.80;1.70;;;1.40;99.90;;;;;;5078695;28;20192;-65
2023/01/19 00:04:08;;;;;;;1.40;1.40;;;1.40;99.90;;;;;;5054843;28;20192;-68
2023/01/19 00:06:35;;;;;;;1.80;1.70;;;1.50;99.90;;;;;;5051939;28;20200;-65
2023/01/19 00:09:02;;;;;;;1.60;1.50;;;1.50;99.90;;;;;;5046338;28;20314;-65
2023/01/19 00:11:29;;;;;;;1.40;1.40;;;1.50;99.90;;;;;;5049456;28;20234;-64
2023/01/19 00:13:56;;;;;;;1.60;1.50;;;1.50;99.90;;;;;;5049454;28;20261;-65
2023/01/19 00:16:23;;;;;;;2.00;1.80;;;1.50;99.90;;;;;;5052783;28;20287;-64
2023/01/19 00:18:52;;;;;;;1.70;1.60;;;1.60;99.90;;;;;;5049197;28;20216;-65
2023/01/19 00:21:20;;;;;;;1.85;1.75;;;1.60;99.90;;;;;;5044152;28;20258;-64
2023/01/19 00:23:47;;;;;;;1.50;1.40;;;1.60;99.90;;;;;;5049812;28;20626;-65
2023/01/19 00:26:16;;;;;;;1.47;1.47;;;1.60;99.90;;;;;;5048643;28;20292;-65
2023/01/19 00:28:43;;;;;;;1.50;1.50;;;1.50;99.90;;;;;;5052254;28;20698;-64
2023/01/19 00:31:10;;;;;;;1.50;1.50;;;1.50;99.90;;;;;;5052428;28;20196;-65
2023/01/19 00:33:37;;;;;;;1.30;1.30;;;1.50;99.90;;;;;;5049544;28;20207;-65
2023/01/19 00:36:05;;;;;;;1.60;1.50;;;1.50;99.90;;;;;;5049133;28;20208;-65
2023/01/19 00:38:32;;;;;;;1.70;1.60;;;1.50;99.90;;;;;;5050218;28;20593;-64
2023/01/19 00:40:59;;;;;;;1.40;1.40;;;1.40;99.90;;;;;;5051709;28;20192;-65
2023/01/19 00:43:25;;;;;;;1.87;1.77;;;1.40;99.90;;;;;;5051607;28;20215;-64
2023/01/19 00:45:52;;;;;;;1.20;1.20;;;1.40;99.90;;;;;;5050814;28;20577;-63
2023/01/19 00:48:19;;;;;;;1.80;1.70;;;1.40;99.90;;;;;;5051123;28;20285;-65
2023/01/19 00:50:46;;;;;;;1.80;1.70;;;1.40;99.90;;;;;;5051560;28;20206;-65
2023/01/19 00:53:14;;;;;;;1.40;1.37;;;1.40;99.90;;;;;;5051634;28;20207;-64
2023/01/19 00:55:41;;;;;;;1.30;1.30;;;1.40;99.90;;;;;;5050528;28;20200;-65
2023/01/19 00:58:08;;;;;;;1.40;1.35;;;1.40;99.90;;;;;;5047493;28;20725;-64
2023/01/19 01:00:35;;;;;;;1.60;1.50;;;1.40;99.90;;;;;;5049296;28;20607;-66
2023/01/19 01:03:02;;;;;;;1.00;1.00;;;1.50;99.90;;;;;;5057846;28;20199;-66
2023/01/19 01:05:28;;;;;;;1.70;1.60;;;1.50;99.90;;;;;;5064896;28;20244;-65
2023/01/19 01:07:55;;;;;;;1.70;1.60;;;1.50;99.90;;;;;;5058228;28;21036;-65
2023/01/19 01:10:26;;;;;;;1.50;1.45;;;1.60;99.90;;;;;;5042690;28;20757;-68
2023/01/19 01:12:53;;;;;;;1.50;1.50;;;1.60;99.90;;;;;;5046262;28;20557;-65
2023/01/19 01:15:20;;;;;;;1.40;1.30;;;1.70;99.90;;;;;;5039455;28;20212;-65
2023/01/19 01:17:47;;;;;;;1.40;1.40;;;1.70;99.90;;;;;;5051606;28;20315;-65
2023/01/19 01:20:17;;;;;;;1.60;1.50;;;1.70;99.90;;;;;;5064090;28;20199;-65
2023/01/19 01:22:49;;;;;;;1.35;1.33;;;1.70;99.90;;;;;;5068427;28;20222;-64
2023/01/19 01:25:17;;;;;;;1.70;1.60;;;1.70;99.90;;;;;;5063451;28;20235;-65
2023/01/19 01:27:46;;;;;;;1.50;1.50;;;1.80;99.90;;;;;;5073477;28;20287;-64
2023/01/19 01:30:14;;;;;;;1.57;1.47;;;1.80;99.90;;;;;;5071904;28;20203;-65
2023/01/19 01:32:42;;;;;;;1.53;1.50;;;1.70;99.90;;;;;;5071569;28;20306;-66
2023/01/19 01:35:10;;;;;;;1.50;1.40;;;1.70;99.90;;;;;;5069822;28;20202;-65
2023/01/19 01:37:37;;;;;;;1.37;1.37;;;1.70;99.90;;;;;;5057282;28;20586;-65
2023/01/19 01:40:06;;;;;;;1.37;1.37;;;1.80;99.90;;;;;;5052038;28;20663;-64
2023/01/19 01:42:34;;;;;;;1.50;1.50;;;1.80;99.90;;;;;;5056060;28;20580;-65
2023/01/19 01:45:04;;;;;;;1.33;1.33;;;1.80;99.90;;;;;;5075168;28;20218;-64
2023/01/19 01:47:36;;;;;;;1.53;1.50;;;1.80;99.90;;;;;;5070804;28;20227;-65
2023/01/19 01:50:08;;;;;;;1.25;1.25;;;1.80;99.90;;;;;;5057224;28;20222;-65
2023/01/19 01:52:40;;;;;;;1.43;1.33;;;1.80;99.90;;;;;;5056410;28;20373;-64
2023/01/19 01:55:08;;;;;;;1.60;1.50;;;1.80;99.90;;;;;;5056497;28;20662;-64
2023/01/19 01:57:39;;;;;;;1.40;1.40;;;1.80;99.90;;;;;;5055845;28;20235;-65
2023/01/19 02:00:10;;;;;;;1.20;1.20;;;1.80;99.90;;;;;;5062209;28;20218;-65
2023/01/19 02:02:53;;;;;;;1.17;1.17;;;1.80;99.90;;;;;;5061351;28;20268;-64
2023/01/19 02:05:24;;;;;;;1.17;1.17;;;1.80;99.90;;;;;;5060386;28;20215;-64
2023/01/19 02:13:27;;;;;;;1.60;1.50;;;1.80;99.90;;;;;;5051712;28;20210;-64
2023/01/19 02:15:59;;;;;;;1.40;1.40;;;1.80;99.90;;;;;;5051641;28;20218;-65
2023/01/19 02:18:29;;;;;;;1.50;1.40;;;1.80;99.90;;;;;;5052072;28;20589;-65
2023/01/19 02:21:03;;;;;;;1.60;1.50;;;1.80;99.90;;;;;;5052891;28;20215;-65
2023/01/19 02:23:43;;;;;;;1.37;1.37;;;1.80;99.90;;;;;;5053627;28;20212;-64
2023/01/19 02:26:13;;;;;;;1.27;1.27;;;1.90;99.90;;;;;;5051952;28;20774;-64
2023/01/19 02:28:44;;;;;;;1.30;1.30;;;1.90;99.90;;;;;;5051699;28;20231;-64
2023/01/19 02:31:11;;;;;;;1.57;1.47;;;1.90;99.90;;;;;;5051604;28;20208;-64
2023/01/19 02:33:38;;;;;;;1.40;1.37;;;1.90;99.90;;;;;;5051757;28;20204;-64
2023/01/19 02:36:07;;;;;;;1.40;1.40;;;1.90;99.90;;;;;;5051313;28;20621;-65
2023/01/19 02:38:37;;;;;;;1.53;1.43;;;2.00;99.90;;;;;;5051632;28;20253;-64
2023/01/19 02:41:08;;;;;;;1.37;1.30;;;2.00;99.90;;;;;;5051105;28;20204;-65
2023/01/19 02:43:36;;;;;;;1.60;1.50;;;2.00;99.90;;;;;;5051476;28;20212;-65
2023/01/19 02:46:03;;;;;;;1.30;1.30;;;2.00;99.90;;;;;;5050710;28;20230;-66
2023/01/19 02:48:30;;;;;;;1.47;1.40;;;2.00;99.90;;;;;;5049766;28;20259;-64
2023/01/19 02:51:03;;;;;;;1.50;1.40;;;1.90;99.90;;;;;;5051491;28;20589;-64
2023/01/19 02:54:04;;;;;;;1.40;1.40;;;1.80;99.90;;;;;;5050549;28;20249;-64
2023/01/19 02:56:53;;;;;;;1.70;1.60;;;1.80;99.90;;;;;;5030021;28;20204;-65
2023/01/19 02:59:30;;;;;;;1.20;1.20;;;1.90;99.90;;;;;;5029974;28;20220;-64
2023/01/19 03:02:10;;;;;;;1.60;1.50;;;1.80;99.90;;;;;;5030102;28;20304;-65
2023/01/19 03:04:45;;;;;;;1.40;1.40;;;1.80;99.90;;;;;;5030210;28;20757;-63
2023/01/19 03:07:19;;;;;;;1.30;1.30;;;1.90;99.90;;;;;;5029887;28;20207;-65
2023/01/19 03:09:52;;;;;;;1.20;1.20;;;1.80;99.90;;;;;;5031416;28;20623;-64
2023/01/19 03:12:28;;;;;;;1.23;1.23;;;1.90;99.90;;;;;;5036825;28;20643;-65
2023/01/19 03:15:00;;;;;;;1.50;1.50;;;1.90;99.90;;;;;;5052528;28;20306;-64
2023/01/19 03:17:31;;;;;;;1.60;1.50;;;1.80;99.90;;;;;;5052269;28;20247;-65
2023/01/19 03:19:58;;;;;;;1.53;1.43;;;1.90;99.90;;;;;;5050755;28;20214;-64
2023/01/19 03:22:28;;;;;;;1.20;1.20;;;2.00;99.90;;;;;;5049917;28;20276;-65
2023/01/19 03:24:58;;;;;;;1.43;1.37;;;2.00;99.90;;;;;;5046398;28;20267;-66
2023/01/19 03:27:30;;;;;;;1.30;1.30;;;2.00;99.90;;;;;;5050502;28;20208;-67
2023/01/19 03:30:00;;;;;;;1.70;1.60;;;2.00;99.90;;;;;;5051637;28;20208;-65
2023/01/19 03:32:31;;;;;;;1.50;1.40;;;2.00;99.90;;;;;;5044589;28;20219;-65
2023/01/19 03:35:00;;;;;;;1.40;1.40;;;2.00;99.90;;;;;;5035636;28;20208;-66
2023/01/19 03:37:31;;;;;;;1.17;1.17;;;2.00;99.90;;;;;;5036421;28;20669;-65
2023/01/19 03:39:58;;;;;;;1.27;1.27;;;2.10;99.90;;;;;;5036489;28;20558;-64
2023/01/19 03:42:28;;;;;;;1.13;1.13;;;2.10;99.90;;;;;;5035961;28;20201;-64
2023/01/19 03:44:56;;;;;;;1.40;1.30;;;2.10;99.90;;;;;;5036073;28;20582;-65
2023/01/19 03:47:25;;;;;;;1.53;1.43;;;2.10;99.90;;;;;;5035677;28;20750;-65
2023/01/19 03:49:53;;;;;;;1.60;1.50;;;2.10;99.90;;;;;;5035738;28;20225;-64
2023/01/19 03:52:28;;;;;;;1.33;1.33;;;2.10;99.90;;;;;;5035864;28;20235;-65
2023/01/19 03:54:55;;;;;;;1.60;1.50;;;2.10;99.90;;;;;;5034814;28;20250;-63
2023/01/19 03:57:22;;;;;;;1.27;1.27;;;2.00;99.90;;;;;;5035193;28;20224;-65
2023/01/19 03:59:50;;;;;;;1.40;1.40;;;2.10;99.90;;;;;;5035080;28;20201;-64
2023/01/19 04:02:17;;;;;;;1.40;1.40;;;2.00;99.90;;;;;;5034960;28;20219;-65
2023/01/19 04:04:44;;;;;;;1.30;1.30;;;2.00;99.90;;;;;;5034885;28;20215;-65
2023/01/19 04:07:11;;;;;;;1.33;1.23;;;1.90;99.90;;;;;;5034748;28;20208;-65
2023/01/19 04:09:37;;;;;;;1.30;1.30;;;1.80;99.90;;;;;;5034372;28;20603;-65
2023/01/19 04:12:04;;;;;;;1.40;1.40;;;1.80;99.90;;;;;;5034811;28;20220;-64
2023/01/19 04:14:31;;;;;;;1.77;1.67;;;1.80;99.90;;;;;;5035124;28;20679;-64
2023/01/19 04:17:00;;;;;;;1.53;1.43;;;1.70;99.90;;;;;;5046053;28;20296;-65
2023/01/19 04:19:26;;;;;;;1.40;1.40;;;1.60;99.90;;;;;;5045700;28;20299;-65
2023/01/19 04:21:54;;;;;;;1.30;1.27;;;1.60;99.90;;;;;;5035993;28;20730;-64
2023/01/19 04:24:21;;;;;;;1.33;1.33;;;1.50;99.90;;;;;;5034428;28;20209;-64
2023/01/19 04:26:50;;;;;;;1.37;1.37;;;1.60;99.90;;;;;;5034421;28;20200;-65
2023/01/19 04:29:17;;;;;;;1.50;1.40;;;1.50;99.90;;;;;;5034216;28;20243;-65
2023/01/19 04:31:44;;;;;;;1.30;1.30;;;1.50;99.90;;;;;;5034150;28;20303;-65
2023/01/19 04:34:12;;;;;;;1.30;1.30;;;1.50;99.90;;;;;;5034346;28;20214;-65
2023/01/19 04:36:39;;;;;;;1.70;1.60;;;1.50;99.90;;;;;;5033676;28;20677;-65
2023/01/19 04:39:07;;;;;;;1.60;1.50;;;1.60;99.90;;;;;;5034126;28;20227;-65
2023/01/19 04:41:34;;;;;;;1.23;1.20;;;1.60;99.90;;;;;;5034161;28;20205;-65
2023/01/19 04:44:01;;;;;;;1.45;1.42;;;1.70;99.90;;;;;;5033899;28;20236;-64
2023/01/19 04:46:28;;;;;;;1.57;1.53;;;1.70;99.90;;;;;;5033753;28;20569;-64
2023/01/19 04:48:55;;;;;;;1.70;1.60;;;1.70;99.90;;;;;;5034193;28;20233;-64
2023/01/19 04:51:23;;;;;;;1.20;1.20;;;1.70;99.90;;;;;;5033857;28;20207;-68
2023/01/19 04:53:50;;;;;;;1.60;1.50;;;1.70;99.90;;;;;;5035179;28;20212;-65
2023/01/19 04:56:17;;;;;;;1.30;1.30;;;1.60;99.90;;;;;;5046936;28;20236;-64
2023/01/19 04:58:43;;;;;;;1.40;1.40;;;1.50;99.90;;;;;;5043696;28;20252;-65
2023/01/19 05:01:10;;;;;;;1.70;1.60;;;1.50;99.90;;;;;;5035786;28;20212;-65
2023/01/19 05:03:39;;;;;;;1.13;1.13;;;1.50;99.90;;;;;;5034487;28;20236;-64
2023/01/19 05:06:06;;;;;;;1.40;1.40;;;1.50;99.90;;;;;;5034594;28;20208;-65
2023/01/19 05:08:34;;;;;;;1.60;1.50;;;1.40;99.90;;;;;;5035737;28;20229;-65
2023/01/19 05:11:01;;;;;;;1.23;1.23;;;1.40;99.90;;;;;;5038069;28;20212;-65
2023/01/19 05:13:28;;;;;;;1.50;1.40;;;1.40;99.90;;;;;;5039990;28;20212;-65
2023/01/19 05:15:55;;;;;;;1.50;1.40;;;1.40;99.90;;;;;;5040774;28;20712;-65
2023/01/19 05:18:22;;;;;;;1.67;1.57;;;1.50;99.90;;;;;;5034942;28;20221;-65
2023/01/19 05:20:49;;;;;;;1.67;1.57;;;1.50;99.90;;;;;;5034108;28;20208;-64
2023/01/19 05:23:16;;;;;;;1.58;1.48;;;1.40;99.90;;;;;;5034981;28;20215;-64
2023/01/19 05:25:44;;;;;;;1.30;1.30;;;1.50;99.90;;;;;;5035311;28;20218;-66
2023/01/19 05:28:11;;;;;;;1.47;1.40;;;1.50;99.90;;;;;;5035014;28;20228;-64
2023/01/19 05:30:38;;;;;;;1.40;1.40;;;1.50;99.90;;;;;;5033611;28;20292;-65
2023/01/19 05:33:05;;;;;;;1.47;1.40;;;1.50;99.90;;;;;;5032428;28;20208;-64
2023/01/19 05:35:32;;;;;;;1.80;1.70;;;1.50;99.90;;;;;;5036355;28;20208;-64
2023/01/19 05:37:59;;;;;;;1.90;1.80;;;1.40;99.90;;;;;;5037209;28;21035;-65
2023/01/19 05:40:27;;;;;;;2.17;2.07;;;1.30;99.90;;;;;;5037755;28;20211;-65
2023/01/19 05:42:59;;;;;;;1.77;1.67;;;1.30;99.90;;;;;;5036626;28;20212;-65
2023/01/19 05:45:26;;;;;;;1.90;1.80;;;1.30;99.90;;;;;;5036733;28;20228;-65
2023/01/19 05:47:54;;;;;;;1.60;1.50;;;1.30;99.90;;;;;;5037011;28;20315;-65
2023/01/19 05:50:20;;;;;;;1.80;1.70;;;1.30;99.90;;;;;;5037002;28;20296;-65
2023/01/19 05:52:47;;;;;;;1.88;1.77;;;1.30;99.90;;;;;;5035897;28;20218;-64
2023/01/19 05:55:15;;;;;;;1.70;1.60;;;1.30;99.90;;;;;;5035571;28;20208;-65
2023/01/19 05:57:43;;;;;;;1.75;1.65;;;1.20;99.90;;;;;;5035537;28;20229;-64
2023/01/19 06:00:12;;;;;;;1.30;1.30;;;1.30;99.90;;;;;;5034853;28;20212;-65
2023/01/19 06:02:39;;;;;;;1.50;1.40;;;1.30;99.90;;;;;;5033024;28;20209;-65
2023/01/19 06:05:06;;;;;;;1.50;1.40;;;1.40;99.90;;;;;;5033104;28;20211;-65
2023/01/19 06:07:33;;;;;;;1.47;1.47;;;1.40;99.90;;;;;;5033350;28;20229;-65
2023/01/19 06:10:00;;;;;;;1.67;1.57;;;1.30;99.90;;;;;;5032941;28;20231;-65
2023/01/19 06:12:27;;;;;;;1.40;1.40;;;1.40;99.90;;;;;;5032596;28;20581;-65
2023/01/19 06:14:54;;;;;;;1.50;1.50;;;1.40;99.90;;;;;;5032199;28;20212;-66
2023/01/19 06:17:22;;;;;;;1.50;1.40;;;1.40;99.90;;;;;;5032680;28;20784;-64
2023/01/19 06:19:49;;;;;;;1.97;1.87;;;1.40;99.90;;;;;;5034208;28;20204;-65
2023/01/19 06:22:16;;;;;;;1.70;1.60;;;1.40;99.90;;;;;;5035129;28;20205;-65
2023/01/19 06:24:44;;;;;;;1.65;1.55;;;1.40;99.90;;;;;;5035849;28;20212;-64
2023/01/19 06:27:12;;;;;;;1.40;1.40;;;1.50;99.90;;;;;;5033062;28;20679;-64
2023/01/19 06:29:39;;;;;;;1.40;1.40;;;1.50;99.90;;;;;;5032595;28;20228;-63
2023/01/19 06:32:07;;;;;;;1.50;1.40;;;1.50;99.90;;;;;;5032881;28;20274;-65
2023/01/19 06:34:35;;;;;;;1.40;1.40;;;1.50;99.90;;;;;;5032040;28;20215;-65
2023/01/19 06:37:02;;;;;;;1.40;1.40;;;1.60;99.90;;;;;;5033343;28;20644;-65
2023/01/19 06:39:29;;;;;;;1.50;1.40;;;1.60;99.90;;;;;;5032233;28;20212;-65
2023/01/19 06:41:56;;;;;;;1.43;1.40;;;1.60;99.90;;;;;;5033552;28;20299;-64
2023/01/19 06:44:24;;;;;;;1.70;1.60;;;1.60;99.90;;;;;;5047573;28;20694;-66
2023/01/19 06:46:52;;;;;;;1.80;1.70;;;1.60;99.90;;;;;;5053939;28;20311;-65
2023/01/19 06:49:19;;;;;;;1.97;1.87;;;1.70;99.90;;;;;;5053044;28;20684;-65
2023/01/19 06:51:48;;;;;;;1.73;1.63;;;1.60;99.90;;;;;;5053273;28;20267;-65
2023/01/19 06:54:15;;;;;;;1.50;1.40;;;1.70;99.90;;;;;;5053183;28;20189;-66
2023/01/19 06:56:42;;;;;;;1.70;1.60;;;1.70;99.90;;;;;;5068289;28;20263;-65
2023/01/19 06:59:09;;;;;;;1.57;1.47;;;1.70;99.90;;;;;;5066753;28;20266;-65
2023/01/19 07:01:37;;;;;;;1.40;1.40;;;1.70;99.90;;;;;;5053146;28;20215;-65
2023/01/19 07:04:04;;;;;;;1.60;1.50;;;1.70;99.90;;;;;;5050971;28;20208;-64
2023/01/19 07:06:31;;;;;;;1.60;1.50;;;1.80;99.90;;;;;;5050254;28;20708;-65
2023/01/19 07:08:59;;;;;;;1.30;1.30;;;1.80;99.90;;;;;;5051755;28;20247;-66
2023/01/19 07:11:26;;;;;;;1.70;1.60;;;1.90;99.90;;;;;;5052122;28;20200;-64
2023/01/19 07:13:55;;;;;;;1.80;1.70;;;1.90;99.90;;;;;;5065650;28;20212;-65
2023/01/19 07:16:22;;;;;;;1.50;1.40;;;2.00;99.90;;;;;;5072903;28;20272;-65
2023/01/19 07:18:49;;;;;;;1.43;1.43;;;2.00;99.90;;;;;;5071829;28;20247;-66
2023/01/19 07:21:17;;;;;;;1.30;1.30;;;2.00;99.90;;;;;;5051903;28;20204;-64
2023/01/19 07:23:47;;;;;;;1.03;1.03;;;2.10;99.90;;;;;;5052080;28;20292;-64
2023/01/19 07:26:17;;;;;;;1.35;1.35;;;2.20;99.90;;;;;;5051402;28;20204;-64
2023/01/19 07:28:44;;;;;;;1.30;1.30;;;2.20;99.90;;;;;;5045942;28;20255;-68
2023/01/19 07:31:11;;;;;;;1.20;1.20;;;2.20;99.90;;;;;;5039716;28;20208;-65
2023/01/19 07:33:38;;;;;;;1.30;1.30;;;2.20;99.90;;;;;;5047089;28;20204;-65
2023/01/19 07:36:05;;;;;;;1.40;1.30;;;2.30;99.90;;;;;;5057440;28;20291;-65
2023/01/19 07:38:32;;;;;;;1.30;1.30;;;2.30;99.90;;;;;;5048144;28;20233;-64
2023/01/19 07:41:02;;;;;;;1.60;1.50;;;2.30;99.90;;;;;;5051128;28;20200;-64
2023/01/19 07:43:31;;;;;;;1.50;1.40;;;2.30;99.90;;;;;;5051481;28;20210;-64
2023/01/19 07:45:58;;;;;;;1.73;1.63;;;2.30;99.90;;;;;;5050732;28;20236;-63
2023/01/19 07:48:25;;;;;;;1.20;1.20;;;2.40;99.90;;;;;;5050795;28;20362;-63
2023/01/19 07:50:52;;;;;;;1.45;1.35;;;2.40;99.90;;;;;;5050761;28;20226;-63
2023/01/19 07:53:19;;;;;;;1.00;1.00;;;2.40;99.90;;;;;;5050929;28;20689;-65
2023/01/19 07:55:47;;;;;;;1.60;1.50;;;2.40;99.90;;;;;;5051579;28;20207;-65
2023/01/19 07:58:13;;;;;;;1.23;1.23;;;2.40;99.90;;;;;;5054892;28;20660;-65
2023/01/19 08:00:42;;;;;;;1.30;1.30;;;2.40;99.90;;;;;;5054711;28;20200;-64
2023/01/19 08:03:10;;;;;;;1.70;1.60;;;2.40;99.90;;;;;;5045930;28;20264;-65
2023/01/19 08:05:36;;;;;;;1.30;1.30;;;2.40;99.90;;;;;;5053385;28;20299;-65
2023/01/19 08:08:04;;;;;;;1.13;1.13;;;2.40;99.90;;;;;;5060164;28;21089;-65
2023/01/19 08:10:31;;;;;;;1.67;1.57;;;2.40;99.90;;;;;;5061725;28;20224;-64
2023/01/19 08:12:58;;;;;;;1.60;1.50;;;2.40;99.90;;;;;;5055794;28;20286;-65
2023/01/19 08:15:26;;;;;;;1.30;1.30;;;2.40;99.90;;;;;;5053915;28;20215;-65
2023/01/19 08:17:59;;;;;;;1.40;1.40;;;2.40;99.90;;;;;;5055410;28;20226;-65
2023/01/19 08:20:27;;;;;;;1.47;1.47;;;2.50;99.90;;;;;;5052819;28;20284;-63
2023/01/19 08:22:58;;;;;;;1.43;1.40;;;2.50;99.90;;;;;;5054967;28;20203;-63
2023/01/19 08:25:26;;;;;;;1.53;1.50;;;2.50;99.90;;;;;;5051582;28;20299;-63
2023/01/19 08:27:55;;;;;;;1.30;1.30;;;2.50;99.90;;;;;;5054710;28;20885;-62
2023/01/19 08:30:25;;;;;;;1.30;1.30;;;2.60;99.90;;;;;;5051908;28;20239;-65
2023/01/19 08:32:52;;;;;;;2.43;1.57;;;2.60;99.90;;;;;;5056406;28;20200;-64
2023/01/19 08:35:21;;;;;;;1.60;1.50;;;2.70;99.90;;;;;;5055342;28;20202;-65
2023/01/19 08:37:48;;;;;;;1.60;1.50;;;2.80;99.90;;;;;;5055950;28;20269;-65
2023/01/19 08:40:15;;;;;;;1.57;1.47;;;2.80;99.90;;;;;;5070946;28;20252;-64
2023/01/19 08:42:42;;;;;;;1.50;1.40;;;2.90;99.90;;;;;;5059572;28;20196;-65
2023/01/19 08:45:09;;;;;;;1.73;1.63;;;3.00;99.90;;;;;;5053944;28;20200;-64
2023/01/19 08:47:36;;;;;;;1.40;1.40;;;3.00;99.90;;;;;;5054196;28;20220;-65
2023/01/19 08:50:03;;;;;;;1.30;1.30;;;3.00;99.90;;;;;;5053230;28;20223;-64
2023/01/19 08:52:31;;;;;;;1.37;1.37;;;3.10;99.90;;;;;;5055440;28;20286;-63
2023/01/19 08:54:58;;;;;;;1.70;1.60;;;3.10;99.90;;;;;;5054389;28;20196;-64
2023/01/19 08:57:27;;;;;;;1.57;1.50;;;3.20;99.90;;;;;;5054558;28;20251;-65
2023/01/19 08:59:54;;;;;;;1.70;1.60;;;3.20;99.90;;;;;;5055452;28;20203;-65
2023/01/19 09:02:20;;;;;;;1.30;1.30;;;3.20;99.90;;;;;;5053496;28;20206;-64
2023/01/19 09:04:47;;;;;;;1.23;1.23;;;3.30;99.90;;;;;;5053403;28;20200;-65
2023/01/19 09:07:14;;;;;;;1.10;1.10;;;3.10;99.90;;;;;;5052451;28;20628;-64
2023/01/19 09:09:42;;;;;;;1.10;1.10;;;3.20;99.90;;;;;;5052030;28;20220;-65
2023/01/19 09:12:09;;;;;;;1.63;1.40;;;3.20;99.90;;;;;;5054723;28;20227;-66
2023/01/19 09:14:37;;;;;;;1.60;1.50;;;3.20;99.90;;;;;;5054432;28;20203;-65
2023/01/19 09:17:05;;;;;;;1.20;1.20;;;3.20;99.90;;;;;;5052157;28;20663;-65
2023/01/19 09:19:32;;;;;;;1.13;1.13;;;3.20;99.90;;;;;;5051690;28;20196;-65
2023/01/19 09:21:59;;;;;;;1.30;1.20;;;3.10;99.90;;;;;;5052862;28;20276;-64
2023/01/19 09:24:26;;;;;;;1.37;1.37;;;3.10;99.90;;;;;;5053255;28;20204;-64
2023/01/19 09:26:54;;;;;;;1.20;1.20;;;3.10;99.90;;;;;;5050003;28;20196;-63
2023/01/19 09:29:21;;;;;;;1.20;1.20;;;3.10;99.90;;;;;;5055798;28;20223;-63
2023/01/19 09:31:48;;;;;;;1.50;1.40;;;3.10;99.90;;;;;;5051005;28;20208;-65
2023/01/19 09:34:15;;;;;;;1.40;1.40;;;3.10;99.90;;;;;;5056124;28;20237;-64
2023/01/19 09:36:42;;;;;;;1.33;1.30;;;3.10;99.90;;;;;;5052270;28;20635;-65
2023/01/19 09:39:10;;;;;;;1.20;1.20;;;3.10;99.90;;;;;;5055076;28;20215;-65
2023/01/19 09:41:38;;;;;;;1.20;1.20;;;3.20;99.90;;;;;;5057270;28;20196;-64
2023/01/19 09:44:13;;;;;;;1.33;1.30;;;3.30;99.90;;;;;;5056745;28;20587;-63
2023/01/19 09:46:41;;;;;;;1.00;1.00;;;3.30;99.90;;;;;;5052606;28;20569;-64
2023/01/19 09:49:14;;;;;;;1.40;1.30;;;3.40;99.90;;;;;;5052195;28;20224;-64
2023/01/19 09:51:44;;;;;;;1.10;1.10;;;3.40;99.90;;;;;;5052224;28;20301;-65
2023/01/19 09:54:14;;;;;;;1.30;1.30;;;3.40;99.90;;;;;;5049465;28;20202;-64
2023/01/19 09:56:41;;;;;;;1.10;1.10;;;3.40;99.90;;;;;;5051330;28;20682;-64
2023/01/19 09:59:20;;;;;;;1.30;1.30;;;3.40;99.90;;;;;;5052904;28;20242;-65
2023/01/19 10:02:06;;;;;;;1.40;1.30;;;3.40;99.90;;;;;;5051934;28;20420;-64
2023/01/19 10:04:39;;;;;;;1.10;1.10;;;3.50;99.90;;;;;;5049986;28;20681;-65
2023/01/19 10:07:36;;;;;;;1.27;1.27;;;3.50;99.90;;;;;;5051249;28;20211;-65
2023/01/19 10:10:20;;;;;;;1.40;1.30;;;3.50;99.90;;;;;;5047776;28;20702;-64
2023/01/19 10:13:29;;;;;;;1.10;1.10;;;3.60;99.90;;;;;;5052055;28;20309;-65
2023/01/19 10:16:05;;;;;;;1.20;1.20;;;3.70;99.90;;;;;;5022952;28;20196;-63
2023/01/19 10:18:46;;;;;;;1.20;1.20;;;3.60;99.90;;;;;;5048338;28;20249;-64
2023/01/19 10:21:17;;;;;;;1.10;1.10;;;3.70;99.90;;;;;;5051680;28;20734;-64
2023/01/19 10:23:49;;;;;;;1.03;1.03;;;3.70;99.90;;;;;;5074214;28;20231;-66
2023/01/19 10:26:20;;;;;;;1.10;1.10;;;3.70;99.90;;;;;;5056423;28;20200;-65
2023/01/19 10:28:49;;;;;;;1.30;1.30;;;3.70;99.90;;;;;;5052528;28;20718;-66
2023/01/19 10:31:21;;;;;;;1.50;1.40;;;3.80;99.90;;;;;;5053794;28;20615;-63
2023/01/19 10:33:49;;;;;;;1.10;1.10;;;3.80;99.90;;;;;;5063092;28;20198;-63
2023/01/19 10:36:18;;;;;;;1.40;1.30;;;4.00;99.90;;;;;;5069875;28;20196;-65
2023/01/19 10:38:45;;;;;;;1.43;1.33;;;4.10;99.90;;;;;;5070633;28;20226;-66
2023/01/19 10:41:19;;;;;;;1.40;1.30;;;4.10;99.90;;;;;;5068895;28;20200;-64
2023/01/19 10:43:47;;;;;;;1.10;1.10;;;4.20;99.90;;;;;;5063631;28;20207;-66
2023/01/19 10:46:21;;;;;;;1.40;1.30;;;4.20;99.90;;;;;;5061778;28;20196;-65
2023/01/19 10:48:51;;;;;;;1.37;1.27;;;4.20;99.90;;;;;;5053452;28;20226;-65
2023/01/19 10:51:18;;;;;;;1.17;1.17;;;4.20;99.90;;;;;;5053696;28;20202;-65
2023/01/19 10:53:55;;;;;;;1.37;1.30;;;4.20;99.90;;;;;;5052725;28;20228;-64
2023/01/19 10:56:24;;;;;;;1.20;1.20;;;4.20;99.90;;;;;;5049942;28;20754;-63
2023/01/19 10:58:51;;;;;;;1.20;1.20;;;4.20;99.90;;;;;;5053639;28;20253;-63
2023/01/19 11:01:22;;;;;;;1.40;1.40;;;4.30;99.90;;;;;;5054534;28;20200;-66
2023/01/19 11:03:49;;;;;;;1.10;1.10;;;4.40;99.90;;;;;;5054131;28;20214;-65
2023/01/19 11:06:22;;;;;;;1.23;1.20;;;4.40;99.90;;;;;;5057043;28;20254;-65
2023/01/19 11:08:51;;;;;;;1.03;1.03;;;4.50;99.90;;;;;;5068445;28;20220;-65
2023/01/19 11:11:18;;;;;;;1.00;1.00;;;4.50;99.90;;;;;;5067864;28;20250;-65
2023/01/19 11:14:01;;;;;;;1.10;1.10;;;4.50;99.90;;;;;;5057623;28;20208;-63
2023/01/19 11:16:33;;;;;;;1.10;1.10;;;4.50;99.90;;;;;;5052173;28;20744;-65
2023/01/19 11:19:02;;;;;;;1.47;1.37;;;4.60;99.90;;;;;;5053377;28;20224;-65
2023/01/19 11:21:31;;;;;;;1.50;1.40;;;4.60;99.90;;;;;;5059777;28;20584;-66
2023/01/19 11:24:00;;;;;;;1.30;1.30;;;4.80;99.90;;;;;;5062315;28;20267;-65
2023/01/19 11:26:30;;;;;;;1.30;1.20;;;5.20;99.90;;;;;;5054287;28;20299;-65
2023/01/19 11:28:59;;;;;;;1.07;1.07;;;5.40;99.90;;;;;;5055058;28;20298;-66
2023/01/19 11:31:35;;;;;;;1.43;1.33;;;5.60;99.90;;;;;;5055960;28;20212;-64
2023/01/19 11:34:04;;;;;;;1.20;1.20;;;5.90;99.90;;;;;;5057658;28;20290;-66
2023/01/19 11:36:32;;;;;;;1.20;1.20;;;6.00;99.90;;;;;;5053837;28;20203;-65
2023/01/19 11:39:12;;;;;;;1.10;1.10;;;6.10;99.90;;;;;;5056136;28;20219;-66
2023/01/19 11:41:40;;;;;;;1.10;1.10;;;5.90;99.90;;;;;;5055662;28;20284;-66
2023/01/19 11:44:16;;;;;;;1.00;1.00;;;6.00;99.90;;;;;;5057418;28;20697;-65
2023/01/19 11:46:46;;;;;;;1.10;1.10;;;6.00;99.90;;;;;;5055283;28;20199;-62
2023/01/19 11:49:20;;;;;;;0.97;0.97;;;6.00;99.90;;;;;;5053729;28;20594;-66
2023/01/19 11:51:55;;;;;;;1.03;1.03;;;5.90;99.90;;;;;;5055885;28;20211;-66
2023/01/19 11:54:29;;;;;;;1.00;1.00;;;5.80;99.90;;;;;;5050891;28;20210;-64
2023/01/19 11:56:58;;;;;;;1.00;1.00;;;5.70;99.90;;;;;;5054769;28;20573;-65
2023/01/19 11:59:25;;;;;;;0.90;0.90;;;5.70;99.90;;;;;;5055008;28;20311;-63
2023/01/19 12:01:57;;;;;;;1.03;1.03;;;5.70;99.90;;;;;;5052987;28;20640;-65
2023/01/19 12:04:28;;;;;;;0.93;0.93;;;5.70;99.90;;;;;;5057114;28;20196;-64
2023/01/19 12:06:57;;;;;;;1.00;1.00;;;5.60;99.90;;;;;;5063288;28;20210;-65
2023/01/19 12:09:27;;;;;;;1.20;1.20;;;5.50;99.90;;;;;;5062406;28;20224;-66
2023/01/19 12:11:58;;;;;;;0.90;0.90;;;5.50;99.90;;;;;;5057984;28;20212;-63
2023/01/19 12:14:32;;;;;;;0.97;0.97;;;5.50;99.90;;;;;;5057136;28;20211;-66
2023/01/19 12:17:04;;;;;;;0.97;0.97;;;5.40;99.90;;;;;;5056491;28;20204;-64
2023/01/19 12:19:42;;;;;;;0.87;0.87;;;5.40;99.90;;;;;;5059148;28;20272;-65
2023/01/19 12:22:13;;;;;;;0.83;0.83;;;5.40;99.90;;;;;;5059608;28;20227;-65
2023/01/19 12:24:46;;;;;;;0.80;0.80;;;5.40;99.90;;;;;;5055520;28;21043;-64
2023/01/19 12:27:22;;;;;;;1.30;1.20;;;5.50;99.90;;;;;;5055321;28;20235;-65
2023/01/19 12:29:49;;;;;;;1.00;1.00;;;5.50;99.90;;;;;;5055398;28;20294;-66
2023/01/19 12:32:19;;;;;;;1.00;1.00;;;5.60;99.90;;;;;;5054469;28;20254;-66
2023/01/19 12:34:47;;;;;;;1.80;1.20;;;5.60;99.90;;;;;;5054478;28;20211;-66
2023/01/19 12:37:39;;;;;;;1.03;1.03;;;5.70;99.90;;;;;;5051431;28;20287;-65
2023/01/19 12:40:30;;;;;;;1.20;1.20;;;5.70;99.90;;;;;;5033325;28;20204;-64
2023/01/19 12:43:00;;;;;;;0.80;0.80;;;5.60;99.90;;;;;;5038065;28;20192;-65
2023/01/19 12:45:32;;;;;;;1.10;1.10;;;5.70;99.90;;;;;;5051024;28;20206;-65
2023/01/19 12:48:01;;;;;;;1.00;1.00;;;5.70;99.90;;;;;;5046865;28;20216;-65
2023/01/19 12:50:33;;;;;;;0.90;0.90;;;5.70;99.90;;;;;;5055742;28;20196;-64
2023/01/19 12:53:02;;;;;;;1.10;1.10;;;5.70;99.90;;;;;;5033632;28;20204;-64
2023/01/19 12:55:32;;;;;;;1.17;1.17;;;5.80;99.90;;;;;;5032033;28;20263;-65
2023/01/19 12:58:02;;;;;;;1.00;1.00;;;5.80;99.90;;;;;;5043727;28;20259;-65
2023/01/19 13:00:32;;;;;;;0.90;0.90;;;5.80;99.90;;;;;;5052463;28;20210;-63
2023/01/19 13:03:02;;;;;;;1.00;1.00;;;5.70;99.90;;;;;;5048858;28;20204;-64
2023/01/19 13:05:48;;;;;;;1.00;1.00;;;5.70;99.90;;;;;;5046706;28;20283;-64
2023/01/19 13:08:17;;;;;;;1.20;1.20;;;5.70;99.90;;;;;;5024296;28;20238;-65
2023/01/19 13:11:19;;;;;;;1.40;1.30;;;5.70;99.90;;;;;;5049390;28;20204;-65
2023/01/19 13:14:27;;;;;;;0.90;0.90;;;5.70;99.90;;;;;;5051160;28;20650;-65
2023/01/19 13:17:19;;;;;;;1.00;1.00;;;5.60;99.90;;;;;;5050514;28;20207;-64